createdAt,value
2023-06-04T00:00:29.615Z,11.56
2023-06-04T00:02:58.793Z,10.69
2023-06-04T00:05:27.932Z,10.82
2023-06-04T00:07:57.208Z,14.00
2023-06-04T00:10:26.332Z,11.91
2023-06-04T00:12:55.399Z,11.49
2023-06-04T00:15:26.030Z,10.21
2023-06-04T00:17:55.233Z,11.81
2023-06-04T00:20:24.582Z,11.04
2023-06-04T00:22:53.735Z,10.38
2023-06-04T00:25:22.861Z,10.41
2023-06-04T00:27:53.432Z,10.08
2023-06-04T00:30:22.510Z,10.92
2023-06-04T00:32:53.158Z,10.96
2023-06-04T00:35:22.748Z,10.94
2023-06-04T00:37:51.873Z,12.03
2023-06-04T00:40:21.016Z,10.42
2023-06-04T00:42:50.528Z,10.59
2023-06-04T00:45:21.348Z,9.50
2023-06-04T00:47:50.546Z,10.08
2023-06-04T00:50:22.039Z,9.40
2023-06-04T00:52:52.546Z,10.74
2023-06-04T00:55:22.118Z,10.62
2023-06-04T00:57:51.154Z,9.71
2023-06-04T01:00:20.899Z,11.78
2023-06-04T01:02:54.675Z,9.96
2023-06-04T01:05:35.974Z,10.28
2023-06-04T01:08:06.832Z,9.17
2023-06-04T01:10:35.966Z,8.83
2023-06-04T01:13:05.123Z,11.12
2023-06-04T01:15:34.279Z,9.72
2023-06-04T01:18:06.434Z,9.58
2023-06-04T01:20:42.625Z,8.86
2023-06-04T01:23:21.857Z,10.55
2023-06-04T01:25:53.226Z,10.00
2023-06-04T01:28:22.897Z,9.77
2023-06-04T01:30:52.980Z,9.93
2023-06-04T01:33:22.326Z,9.57
2023-06-04T01:35:53.111Z,9.11
2023-06-04T01:38:22.300Z,9.09
2023-06-04T01:40:51.886Z,8.05
2023-06-04T01:43:20.894Z,8.39
2023-06-04T01:45:50.343Z,8.68
2023-06-04T01:48:19.487Z,8.85
2023-06-04T01:50:48.518Z,8.25
2023-06-04T01:53:19.059Z,8.67
2023-06-04T01:55:50.252Z,7.55
2023-06-04T01:58:27.952Z,7.97
2023-06-04T02:00:57.244Z,9.13
2023-06-04T02:03:26.783Z,7.90
2023-06-04T02:05:55.955Z,7.86
2023-06-04T02:08:26.851Z,8.71
2023-06-04T02:10:55.909Z,9.24
2023-06-04T02:13:24.985Z,7.69
2023-06-04T02:15:54.056Z,7.80
2023-06-04T02:18:23.885Z,7.32
2023-06-04T02:20:53.522Z,8.17
2023-06-04T02:23:22.939Z,9.13
2023-06-04T02:25:53.415Z,7.84
2023-06-04T02:28:22.700Z,7.40
2023-06-04T02:30:51.730Z,6.98
2023-06-04T02:33:21.935Z,7.95
2023-06-04T02:35:51.898Z,8.36
2023-06-04T02:38:21.093Z,6.63
2023-06-04T02:40:50.291Z,7.34
2023-06-04T02:43:21.827Z,7.29
2023-06-04T02:45:51.032Z,7.91
2023-06-04T02:48:20.081Z,7.66
2023-06-04T02:50:49.370Z,7.92
2023-06-04T02:53:18.397Z,6.70
2023-06-04T02:55:47.492Z,7.26
2023-06-04T02:58:17.409Z,7.98
2023-06-04T03:00:48.201Z,8.21
2023-06-04T03:03:17.617Z,7.94
2023-06-04T03:05:47.424Z,7.99
2023-06-04T03:08:16.822Z,7.46
2023-06-04T03:10:45.866Z,7.88
2023-06-04T03:13:16.317Z,6.86
2023-06-04T03:15:45.977Z,7.65
2023-06-04T03:18:16.567Z,7.10
2023-06-04T03:20:45.616Z,8.02
2023-06-04T03:23:15.201Z,8.32
2023-06-04T03:25:44.214Z,8.51
2023-06-04T03:28:13.364Z,7.28
2023-06-04T03:30:43.016Z,9.75
2023-06-04T03:33:12.725Z,11.17
2023-06-04T03:35:43.750Z,11.54
2023-06-04T03:38:12.882Z,12.49
2023-06-04T03:40:43.471Z,12.46
2023-06-04T03:43:13.170Z,13.75
2023-06-04T03:45:44.349Z,12.15
2023-06-04T03:48:14.342Z,13.55
2023-06-04T03:50:47.275Z,13.51
2023-06-04T03:53:17.586Z,13.12
2023-06-04T03:55:46.981Z,11.84
2023-06-04T03:58:16.094Z,10.74
2023-06-04T04:00:49.603Z,13.45
2023-06-04T04:03:19.042Z,13.26
2023-06-04T04:05:50.084Z,12.61
2023-06-04T04:08:19.174Z,12.79
2023-06-04T04:10:48.283Z,13.03
2023-06-04T04:13:17.941Z,12.80
2023-06-04T04:15:46.997Z,13.03
2023-06-04T04:18:18.128Z,13.59
2023-06-04T04:20:49.102Z,12.79
2023-06-04T04:23:18.580Z,13.51
2023-06-04T04:25:49.963Z,12.69
2023-06-04T04:28:20.229Z,11.99
2023-06-04T04:30:50.783Z,12.69
2023-06-04T04:33:20.174Z,14.87
2023-06-04T04:35:51.456Z,14.14
2023-06-04T04:38:25.184Z,12.61
2023-06-04T04:41:02.720Z,12.78
2023-06-04T04:43:33.385Z,13.44
2023-06-04T04:46:08.878Z,12.99
2023-06-04T04:48:39.798Z,12.74
2023-06-04T04:51:10.367Z,12.69
2023-06-04T04:53:40.047Z,12.97
2023-06-04T04:56:09.193Z,12.35
2023-06-04T04:58:43.122Z,11.97
2023-06-04T05:01:12.557Z,11.40
2023-06-04T05:03:43.501Z,11.86
2023-06-04T05:06:16.813Z,11.54
2023-06-04T05:08:46.628Z,11.26
2023-06-04T05:11:17.481Z,11.20
2023-06-04T05:13:48.139Z,10.61
2023-06-04T05:16:17.596Z,11.63
2023-06-04T05:18:48.388Z,10.97
2023-06-04T05:21:23.525Z,11.83
2023-06-04T05:23:58.404Z,11.57
2023-06-04T05:26:34.222Z,11.28
2023-06-04T05:29:08.792Z,11.45
2023-06-04T05:31:42.369Z,11.42
2023-06-04T05:34:17.713Z,11.11
2023-06-04T05:36:49.214Z,10.78
2023-06-04T05:39:19.962Z,10.18
2023-06-04T05:41:55.808Z,10.44
2023-06-04T05:44:24.903Z,10.89
2023-06-04T05:46:54.178Z,10.11
2023-06-04T05:49:25.928Z,10.04
2023-06-04T05:51:58.175Z,10.47
2023-06-04T05:54:28.093Z,11.23
2023-06-04T05:56:57.579Z,10.52
2023-06-04T05:59:26.860Z,9.94
2023-06-04T06:01:56.290Z,9.63
2023-06-04T06:04:27.407Z,11.67
2023-06-04T06:06:58.630Z,9.90
2023-06-04T06:09:27.902Z,9.01
2023-06-04T06:11:57.134Z,10.27
2023-06-04T06:14:26.395Z,8.91
2023-06-04T06:16:56.189Z,9.39
2023-06-04T06:19:25.899Z,10.44
2023-06-04T06:21:55.013Z,9.72
2023-06-04T06:24:25.620Z,9.53
2023-06-04T06:26:54.962Z,9.97
2023-06-04T06:29:24.515Z,9.26
2023-06-04T06:31:54.780Z,9.33
2023-06-04T06:34:23.863Z,8.45
2023-06-04T06:36:52.893Z,9.42
2023-06-04T06:39:22.096Z,10.01
2023-06-04T06:41:52.704Z,9.62
2023-06-04T06:44:26.200Z,9.70
2023-06-04T06:46:55.309Z,9.56
2023-06-04T06:49:24.473Z,9.44
2023-06-04T06:51:53.518Z,10.15
2023-06-04T06:54:23.240Z,9.00
2023-06-04T06:56:53.685Z,9.04
2023-06-04T06:59:22.748Z,8.70
2023-06-04T07:01:52.149Z,9.23
2023-06-04T07:04:21.707Z,9.10
2023-06-04T07:06:50.823Z,9.43
2023-06-04T07:09:19.874Z,9.53
2023-06-04T07:11:48.925Z,8.97
2023-06-04T07:14:19.452Z,10.20
2023-06-04T07:16:48.649Z,8.96
2023-06-04T07:19:17.733Z,8.25
2023-06-04T07:21:47.120Z,9.95
2023-06-04T07:24:16.276Z,8.71
2023-06-04T07:26:45.339Z,8.48
2023-06-04T07:29:14.615Z,9.31
2023-06-04T07:31:45.092Z,8.91
2023-06-04T07:34:14.183Z,8.86
2023-06-04T07:36:43.254Z,9.46
2023-06-04T07:39:12.318Z,9.59
2023-06-04T07:41:41.377Z,8.93
2023-06-04T07:44:10.631Z,9.78
2023-06-04T07:46:39.839Z,8.44
2023-06-04T07:49:10.635Z,9.15
2023-06-04T07:51:39.704Z,8.82
2023-06-04T07:54:08.785Z,8.67
2023-06-04T07:56:38.051Z,8.67
2023-06-04T07:59:07.104Z,8.18
2023-06-04T08:01:36.221Z,7.25
2023-06-04T08:04:05.409Z,9.02
2023-06-04T08:06:36.583Z,8.82
2023-06-04T08:09:05.789Z,7.53
2023-06-04T08:11:34.889Z,7.07
2023-06-04T08:14:04.073Z,7.29
2023-06-04T08:16:34.438Z,7.56
2023-06-04T08:19:03.538Z,8.42
2023-06-04T08:21:32.586Z,7.23
2023-06-04T08:24:03.674Z,7.17
2023-06-04T08:26:33.639Z,6.88
2023-06-04T08:29:05.689Z,7.79
2023-06-04T08:31:35.266Z,8.21
2023-06-04T08:34:06.354Z,7.29
2023-06-04T08:36:36.183Z,7.64
2023-06-04T08:39:06.797Z,7.39
2023-06-04T08:41:44.752Z,7.86
2023-06-04T08:44:14.757Z,8.11
2023-06-04T08:46:46.431Z,6.83
2023-06-04T08:49:16.310Z,7.41
2023-06-04T08:51:45.454Z,7.65
2023-06-04T08:54:16.621Z,7.29
2023-06-04T08:56:48.293Z,8.17
2023-06-04T08:59:18.566Z,7.55
2023-06-04T09:01:47.843Z,8.73
2023-06-04T09:04:17.662Z,7.38
2023-06-04T09:06:47.772Z,7.38
2023-06-04T09:09:21.169Z,6.72
2023-06-04T09:11:56.005Z,7.21
2023-06-04T09:14:25.714Z,7.98
2023-06-04T09:16:56.677Z,7.09
2023-06-04T09:19:25.835Z,7.03
2023-06-04T09:21:56.690Z,6.77
2023-06-04T09:24:41.601Z,7.25
2023-06-04T09:27:14.959Z,7.02
2023-06-04T09:29:52.539Z,7.00
2023-06-04T09:32:24.663Z,7.13
2023-06-04T09:34:54.169Z,6.79
2023-06-04T09:37:24.317Z,6.65
2023-06-04T09:39:58.268Z,6.76
2023-06-04T09:42:27.366Z,7.85
2023-06-04T09:44:56.435Z,6.59
2023-06-04T09:47:26.795Z,6.93
2023-06-04T09:49:55.949Z,7.38
2023-06-04T09:52:35.512Z,6.09
2023-06-04T09:55:19.818Z,7.21
2023-06-04T09:57:50.346Z,7.26
2023-06-04T10:00:22.054Z,6.73
2023-06-04T10:02:52.676Z,6.68
2023-06-04T10:05:23.134Z,5.59
2023-06-04T10:07:54.002Z,7.43
2023-06-04T10:10:29.116Z,7.56
2023-06-04T10:13:06.746Z,6.03
2023-06-04T10:15:38.311Z,6.07
2023-06-04T10:18:08.336Z,7.49
2023-06-04T10:20:37.457Z,6.85
2023-06-04T10:23:08.963Z,7.39
2023-06-04T10:25:39.752Z,6.74
2023-06-04T10:28:08.967Z,6.95
2023-06-04T10:30:38.008Z,7.41
2023-06-04T10:33:07.235Z,7.17
2023-06-04T10:35:38.265Z,6.74
2023-06-04T10:38:11.922Z,6.46
2023-06-04T10:40:43.164Z,7.85
2023-06-04T10:43:14.240Z,7.38
2023-06-04T10:45:44.138Z,6.46
2023-06-04T10:48:15.987Z,6.34
2023-06-04T10:50:52.426Z,6.75
2023-06-04T10:53:22.992Z,6.87
2023-06-04T10:55:53.535Z,7.05
2023-06-04T10:58:22.621Z,6.87
2023-06-04T11:00:51.790Z,6.71
2023-06-04T11:03:22.176Z,6.86
2023-06-04T11:05:51.780Z,6.96
2023-06-04T11:08:30.526Z,7.08
2023-06-04T11:11:01.032Z,6.77
2023-06-04T11:13:30.851Z,7.01
2023-06-04T11:15:59.962Z,6.42
2023-06-04T11:18:29.080Z,6.36
2023-06-04T11:21:02.224Z,6.70
2023-06-04T11:23:31.502Z,6.55
2023-06-04T11:26:03.268Z,7.29
2023-06-04T11:28:32.486Z,6.72
2023-06-04T11:31:04.225Z,7.25
2023-06-04T11:33:44.778Z,6.77
2023-06-04T11:36:24.897Z,7.09
2023-06-04T11:38:58.748Z,7.58
2023-06-04T11:41:32.663Z,6.49
2023-06-04T11:44:05.914Z,6.54
2023-06-04T11:46:37.140Z,6.83
2023-06-04T11:49:06.399Z,6.32
2023-06-04T11:51:35.815Z,6.79
2023-06-04T11:54:05.413Z,6.44
2023-06-04T11:56:36.051Z,6.46
2023-06-04T11:59:05.746Z,6.71
2023-06-04T12:01:35.044Z,6.42
2023-06-04T12:04:14.272Z,7.28
2023-06-04T12:06:53.747Z,7.03
2023-06-04T12:09:23.786Z,6.28
2023-06-04T12:12:00.401Z,7.03
2023-06-04T12:14:30.121Z,7.36
2023-06-04T12:17:00.555Z,7.33
2023-06-04T12:19:30.643Z,6.58
2023-06-04T12:22:04.645Z,6.31
2023-06-04T12:24:36.241Z,6.32
2023-06-04T12:27:09.378Z,6.41
2023-06-04T12:29:38.430Z,6.84
2023-06-04T12:32:12.431Z,6.78
2023-06-04T12:34:42.701Z,7.31
2023-06-04T12:37:11.700Z,6.07
2023-06-04T12:39:40.702Z,5.65
2023-06-04T12:42:11.651Z,5.94
2023-06-04T12:44:42.074Z,6.89
2023-06-04T12:47:11.226Z,6.70
2023-06-04T12:49:40.513Z,5.94
2023-06-04T12:52:09.599Z,6.26
2023-06-04T12:54:38.618Z,6.05
2023-06-04T12:57:07.973Z,7.47
2023-06-04T12:59:38.735Z,7.31
2023-06-04T13:02:08.017Z,6.76
2023-06-04T13:04:37.212Z,7.79
2023-06-04T13:07:06.462Z,6.75
2023-06-04T13:09:36.255Z,6.67
2023-06-04T13:12:07.051Z,8.12
2023-06-04T13:14:36.095Z,6.79
2023-06-04T13:17:17.923Z,6.51
2023-06-04T13:19:50.951Z,6.40
2023-06-04T13:22:20.090Z,7.19
2023-06-04T13:24:49.189Z,7.10
2023-06-04T13:27:18.249Z,6.51
2023-06-04T13:29:47.320Z,6.13
2023-06-04T13:32:17.900Z,6.13
2023-06-04T13:34:47.099Z,6.53
2023-06-04T13:37:16.320Z,8.02
2023-06-04T13:39:45.452Z,6.34
2023-06-04T13:42:14.618Z,6.66
2023-06-04T13:44:43.659Z,6.27
2023-06-04T13:47:12.941Z,7.27
2023-06-04T13:49:43.399Z,5.55
2023-06-04T13:52:12.421Z,5.43
2023-06-04T13:54:41.940Z,5.99
2023-06-04T13:57:12.662Z,6.52
2023-06-04T13:59:41.787Z,6.56
2023-06-04T14:02:11.028Z,5.39
2023-06-04T14:04:40.100Z,6.44
2023-06-04T14:07:10.551Z,6.57
2023-06-04T14:09:39.597Z,5.74
2023-06-04T14:12:08.764Z,6.34
2023-06-04T14:14:38.317Z,6.12
2023-06-04T14:17:07.912Z,6.53
2023-06-04T14:19:37.402Z,6.19
2023-06-04T14:22:06.678Z,5.85
2023-06-04T14:24:37.385Z,6.43
2023-06-04T14:27:07.808Z,5.06
2023-06-04T14:29:39.228Z,5.51
2023-06-04T14:32:10.290Z,6.40
2023-06-04T14:34:39.369Z,5.79
2023-06-04T14:37:08.704Z,6.28
2023-06-04T14:39:39.158Z,5.87
2023-06-04T14:42:08.767Z,5.49
2023-06-04T14:44:37.763Z,5.46
2023-06-04T14:47:07.489Z,5.77
2023-06-04T14:49:37.439Z,5.51
2023-06-04T14:52:06.513Z,6.12
2023-06-04T14:54:36.429Z,5.88
2023-06-04T14:57:06.985Z,5.17
2023-06-04T14:59:36.210Z,5.54
2023-06-04T15:02:05.561Z,6.20
2023-06-04T15:04:34.674Z,5.56
2023-06-04T15:07:04.136Z,5.28
2023-06-04T15:09:33.292Z,5.31
2023-06-04T15:12:04.551Z,5.65
2023-06-04T15:14:35.766Z,5.21
2023-06-04T15:17:05.094Z,5.64
2023-06-04T15:19:34.930Z,5.65
2023-06-04T15:22:04.025Z,6.20
2023-06-04T15:24:33.437Z,4.87
2023-06-04T15:27:02.624Z,6.03
2023-06-04T15:29:31.821Z,5.35
2023-06-04T15:32:02.478Z,5.55
2023-06-04T15:34:31.549Z,4.43
2023-06-04T15:37:00.603Z,5.92
2023-06-04T15:39:29.653Z,5.08
2023-06-04T15:41:58.978Z,5.01
2023-06-04T15:44:28.575Z,5.01
2023-06-04T15:46:57.628Z,5.88
2023-06-04T15:49:29.880Z,4.60
2023-06-04T15:51:58.993Z,4.75
2023-06-04T15:54:44.521Z,5.38
2023-06-04T15:57:14.924Z,5.79
2023-06-04T15:59:44.135Z,6.80
2023-06-04T16:02:13.279Z,6.57
2023-06-04T16:04:43.725Z,6.05
2023-06-04T16:07:12.758Z,5.17
2023-06-04T16:09:41.762Z,5.72
2023-06-04T16:12:11.129Z,5.55
2023-06-04T16:14:40.149Z,5.97
2023-06-04T16:17:09.210Z,6.11
2023-06-04T16:19:38.259Z,7.07
2023-06-04T16:22:08.784Z,7.09
2023-06-04T16:24:37.883Z,6.14
2023-06-04T16:27:07.392Z,5.79
2023-06-04T16:29:36.450Z,5.86
2023-06-04T16:32:05.662Z,5.31
2023-06-04T16:34:34.726Z,5.91
2023-06-04T16:37:03.777Z,6.37
2023-06-04T16:39:34.161Z,5.69
2023-06-04T16:42:04.169Z,6.64
2023-06-04T16:44:33.210Z,5.61
2023-06-04T16:47:02.364Z,5.99
2023-06-04T16:49:31.501Z,6.23
2023-06-04T16:52:00.556Z,5.26
2023-06-04T16:54:29.828Z,5.07
2023-06-04T16:57:01.423Z,5.10
2023-06-04T16:59:31.756Z,5.18
2023-06-04T17:02:00.854Z,5.05
2023-06-04T17:04:29.919Z,6.24
2023-06-04T17:06:59.012Z,4.59
2023-06-04T17:09:28.102Z,5.45
2023-06-04T17:11:57.166Z,5.28
2023-06-04T17:14:27.948Z,5.89
2023-06-04T17:16:57.130Z,5.79
2023-06-04T17:19:26.741Z,5.12
2023-06-04T17:21:56.081Z,5.12
2023-06-04T17:24:25.147Z,5.40
2023-06-04T17:26:54.284Z,5.66
2023-06-04T17:29:23.557Z,4.90
2023-06-04T17:31:54.208Z,5.42
2023-06-04T17:34:23.244Z,5.10
2023-06-04T17:36:52.341Z,4.88
2023-06-04T17:39:21.378Z,5.55
2023-06-04T17:41:50.394Z,5.52
2023-06-04T17:44:19.485Z,5.62
2023-06-04T17:46:48.550Z,6.01
2023-06-04T17:49:19.028Z,6.10
2023-06-04T17:51:48.116Z,5.40
2023-06-04T17:54:17.172Z,5.81
2023-06-04T17:56:46.268Z,5.07
2023-06-04T17:59:15.374Z,5.53
2023-06-04T18:01:44.497Z,5.58
2023-06-04T18:04:13.631Z,5.83
2023-06-04T18:06:44.095Z,5.25
2023-06-04T18:09:13.100Z,5.24
2023-06-04T18:11:42.156Z,5.95
2023-06-04T18:14:11.240Z,5.26
2023-06-04T18:16:40.321Z,5.61
2023-06-04T18:19:10.512Z,5.90
2023-06-04T18:21:39.540Z,5.34
2023-06-04T18:24:10.031Z,4.79
2023-06-04T18:26:39.145Z,5.54
2023-06-04T18:29:08.218Z,5.26
2023-06-04T18:31:37.437Z,4.56
2023-06-04T18:34:07.958Z,5.62
2023-06-04T18:36:37.917Z,5.38
2023-06-04T18:39:07.026Z,5.08
2023-06-04T18:41:37.484Z,5.36
2023-06-04T18:44:06.584Z,5.14
2023-06-04T18:46:35.745Z,5.17
2023-06-04T18:49:05.653Z,4.28
2023-06-04T18:51:34.765Z,4.81
2023-06-04T18:54:03.930Z,4.11
2023-06-04T18:56:33.069Z,5.45
2023-06-04T18:59:03.576Z,5.03
2023-06-04T19:01:32.663Z,5.47
2023-06-04T19:04:02.188Z,5.68
2023-06-04T19:06:31.566Z,5.55
2023-06-04T19:09:00.693Z,5.32
2023-06-04T19:11:30.378Z,5.77
2023-06-04T19:13:59.968Z,4.97
2023-06-04T19:16:30.598Z,5.50
2023-06-04T19:18:59.813Z,4.85
2023-06-04T19:21:28.868Z,5.84
2023-06-04T19:23:57.984Z,8.81
2023-06-04T19:26:27.181Z,11.13
2023-06-04T19:28:56.304Z,9.50
2023-06-04T19:31:28.866Z,7.90
2023-06-04T19:34:00.170Z,8.32
2023-06-04T19:36:29.807Z,9.26
2023-06-04T19:38:59.338Z,8.90
2023-06-04T19:41:28.774Z,8.08
2023-06-04T19:43:57.833Z,7.07
2023-06-04T19:46:27.088Z,8.18
2023-06-04T19:48:57.800Z,8.78
2023-06-04T19:51:28.759Z,8.09
2023-06-04T19:53:58.073Z,7.95
2023-06-04T19:56:27.159Z,7.86
2023-06-04T19:58:56.229Z,7.69
2023-06-04T20:01:25.313Z,7.93
2023-06-04T20:03:54.831Z,7.45
2023-06-04T20:06:24.461Z,6.56
2023-06-04T20:08:54.970Z,13.01
2023-06-04T20:11:26.396Z,13.61
2023-06-04T20:13:55.521Z,14.51
2023-06-04T20:16:24.729Z,12.91
2023-06-04T20:18:53.889Z,12.58
2023-06-04T20:21:22.964Z,12.28
2023-06-04T20:23:53.655Z,11.65
2023-06-04T20:26:24.201Z,11.66
2023-06-04T20:28:55.061Z,14.17
2023-06-04T20:31:24.473Z,12.43
2023-06-04T20:33:56.621Z,13.33
2023-06-04T20:36:26.226Z,13.30
2023-06-04T20:38:57.537Z,13.34
2023-06-04T20:41:28.275Z,11.70
2023-06-04T20:43:57.500Z,14.01
2023-06-04T20:46:26.590Z,14.21
2023-06-04T20:48:55.649Z,12.12
2023-06-04T20:51:25.072Z,11.89
2023-06-04T20:53:54.100Z,12.27
2023-06-04T20:56:24.709Z,12.89
2023-06-04T20:58:55.176Z,10.98
2023-06-04T21:01:24.421Z,12.07
2023-06-04T21:03:53.792Z,12.04
2023-06-04T21:06:22.944Z,10.87
2023-06-04T21:08:52.120Z,12.02
2023-06-04T21:11:21.212Z,9.85
2023-06-04T21:13:50.225Z,9.53
2023-06-04T21:16:20.813Z,10.81
2023-06-04T21:18:52.389Z,9.47
2023-06-04T21:21:21.644Z,11.23
2023-06-04T21:23:50.911Z,9.79
2023-06-04T21:26:21.410Z,9.88
2023-06-04T21:28:50.556Z,11.67
2023-06-04T21:31:21.004Z,10.51
2023-06-04T21:33:50.122Z,11.35
2023-06-04T21:36:19.189Z,11.66
2023-06-04T21:38:48.417Z,12.14
2023-06-04T21:41:17.495Z,11.43
2023-06-04T21:43:46.593Z,11.98
2023-06-04T21:46:16.320Z,12.15
2023-06-04T21:48:47.981Z,12.82
2023-06-04T21:51:17.062Z,12.05
2023-06-04T21:53:46.216Z,12.84
2023-06-04T21:56:15.270Z,13.02
2023-06-04T21:58:44.628Z,13.64
2023-06-04T22:01:13.690Z,15.10
2023-06-04T22:03:42.952Z,13.28
2023-06-04T22:06:13.459Z,12.82
2023-06-04T22:08:42.568Z,13.28
2023-06-04T22:11:11.757Z,12.39
2023-06-04T22:13:41.081Z,13.14
2023-06-04T22:16:10.268Z,14.58
2023-06-04T22:18:52.196Z,14.85
2023-06-04T22:21:24.202Z,14.36
2023-06-04T22:23:53.535Z,14.20
2023-06-04T22:26:36.599Z,12.94
2023-06-04T22:29:06.571Z,11.38
2023-06-04T22:31:36.270Z,11.99
2023-06-04T22:34:07.200Z,11.78
2023-06-04T22:36:37.657Z,10.35
2023-06-04T22:39:06.761Z,11.61
2023-06-04T22:41:35.869Z,10.82
2023-06-04T22:44:05.124Z,12.29
2023-06-04T22:46:34.362Z,10.30
2023-06-04T22:49:03.501Z,9.02
2023-06-04T22:51:32.829Z,8.72
2023-06-04T22:54:03.604Z,8.62
2023-06-04T22:56:32.747Z,9.95
2023-06-04T22:59:01.861Z,9.85
2023-06-04T23:01:31.186Z,9.95
2023-06-04T23:04:00.400Z,8.92
2023-06-04T23:06:29.824Z,9.97
2023-06-04T23:08:58.915Z,8.97
2023-06-04T23:11:29.343Z,10.37
2023-06-04T23:13:58.538Z,9.28
2023-06-04T23:16:27.697Z,9.59
2023-06-04T23:18:57.406Z,8.93
2023-06-04T23:21:26.563Z,8.73
2023-06-04T23:23:55.696Z,8.55
2023-06-04T23:26:24.848Z,9.35
2023-06-04T23:28:55.378Z,8.65
2023-06-04T23:31:24.473Z,8.33
2023-06-04T23:33:53.641Z,8.35
2023-06-04T23:36:22.730Z,10.19
2023-06-04T23:38:51.776Z,9.64
2023-06-04T23:41:20.955Z,9.07
2023-06-04T23:43:50.045Z,9.36
2023-06-04T23:46:20.493Z,8.56
2023-06-04T23:48:49.529Z,9.28
2023-06-04T23:51:18.695Z,8.29
2023-06-04T23:53:47.981Z,8.87
2023-06-04T23:56:17.202Z,7.81
2023-06-04T23:58:46.592Z,8.88
